createdAt,value
2018-07-27T00:00:46.067Z,5.03
2018-07-27T00:02:50.129Z,5.37
2018-07-27T00:04:56.733Z,4.67
2018-07-27T00:07:01.674Z,5.20
2018-07-27T00:09:11.872Z,5.03
2018-07-27T00:11:16.316Z,5.37
2018-07-27T00:13:24.347Z,5.10
2018-07-27T00:15:28.629Z,5.00
2018-07-27T00:17:38.675Z,4.70
2018-07-27T00:19:45.902Z,5.37
2018-07-27T00:21:52.793Z,5.03
2018-07-27T00:23:57.916Z,4.77
2018-07-27T00:26:05.528Z,5.20
2018-07-27T00:28:13.782Z,5.23
2018-07-27T00:30:19.445Z,5.27
2018-07-27T00:32:26.206Z,4.83
2018-07-27T00:34:30.331Z,4.90
2018-07-27T00:36:34.829Z,4.73
2018-07-27T00:38:42.408Z,4.73
2018-07-27T00:40:49.178Z,5.13
2018-07-27T00:43:03.392Z,4.43
2018-07-27T00:45:07.627Z,4.90
2018-07-27T00:47:13.849Z,4.87
2018-07-27T00:49:21.817Z,4.90
2018-07-27T00:51:25.917Z,4.33
2018-07-27T00:53:31.106Z,4.50
2018-07-27T00:55:38.182Z,4.83
2018-07-27T00:57:42.225Z,4.87
2018-07-27T00:59:46.258Z,5.10
2018-07-27T01:01:51.567Z,4.53
2018-07-27T01:03:56.273Z,4.70
2018-07-27T01:06:07.443Z,5.33
2018-07-27T01:08:13.766Z,5.17
2018-07-27T01:10:19.174Z,4.70
2018-07-27T01:12:24.250Z,4.60
2018-07-27T01:14:28.301Z,4.43
2018-07-27T01:16:32.350Z,4.70
2018-07-27T01:18:36.479Z,4.63
2018-07-27T01:20:41.256Z,4.60
2018-07-27T01:22:45.399Z,4.50
2018-07-27T01:24:49.451Z,4.60
2018-07-27T01:26:53.845Z,4.60
2018-07-27T01:28:59.446Z,4.83
2018-07-27T01:31:03.453Z,4.90
2018-07-27T01:33:08.662Z,4.73
2018-07-27T01:35:12.782Z,5.03
2018-07-27T01:37:19.185Z,4.70
2018-07-27T01:39:23.833Z,4.70
2018-07-27T01:41:28.938Z,5.13
2018-07-27T01:43:33.002Z,4.90
2018-07-27T01:45:37.512Z,4.97
2018-07-27T01:47:41.452Z,4.87
2018-07-27T01:49:46.367Z,4.80
2018-07-27T01:51:50.638Z,4.60
2018-07-27T01:53:55.281Z,4.83
2018-07-27T01:55:59.347Z,4.93
2018-07-27T01:58:04.598Z,5.67
2018-07-27T02:00:09.199Z,4.50
2018-07-27T02:02:13.166Z,5.13
2018-07-27T02:04:17.067Z,4.80
2018-07-27T02:06:21.024Z,4.93
2018-07-27T02:08:24.878Z,5.03
2018-07-27T02:10:29.518Z,5.00
2018-07-27T02:12:33.415Z,4.70
2018-07-27T02:14:37.432Z,4.77
2018-07-27T02:16:43.398Z,4.70
2018-07-27T02:18:47.387Z,5.10
2018-07-27T02:20:51.346Z,4.97
2018-07-27T02:22:55.664Z,5.60
2018-07-27T02:24:59.594Z,4.97
2018-07-27T02:27:03.527Z,5.23
2018-07-27T02:29:09.112Z,5.10
2018-07-27T02:31:14.082Z,5.43
2018-07-27T02:33:19.036Z,5.03
2018-07-27T02:35:24.154Z,5.33
2018-07-27T02:37:28.085Z,4.80
2018-07-27T02:39:31.991Z,5.00
2018-07-27T02:41:37.086Z,5.03
2018-07-27T02:43:41.120Z,4.97
2018-07-27T02:45:45.009Z,4.67
2018-07-27T02:47:50.579Z,5.03
2018-07-27T02:49:54.501Z,5.67
2018-07-27T02:51:59.102Z,5.13
2018-07-27T02:54:04.037Z,4.90
2018-07-27T02:56:08.017Z,5.63
2018-07-27T02:58:11.981Z,5.50
2018-07-27T03:00:18.438Z,5.20
2018-07-27T03:02:23.651Z,5.40
2018-07-27T03:04:27.620Z,4.97
2018-07-27T03:06:32.451Z,5.30
2018-07-27T03:08:37.457Z,5.17
2018-07-27T03:10:41.511Z,5.03
2018-07-27T03:12:45.541Z,5.33
2018-07-27T03:14:49.061Z,5.60
2018-07-27T03:16:55.421Z,5.27
2018-07-27T03:19:01.425Z,4.83
2018-07-27T03:21:05.438Z,5.40
2018-07-27T03:23:09.436Z,5.30
2018-07-27T03:25:14.117Z,5.67
2018-07-27T03:27:17.649Z,5.63
2018-07-27T03:29:21.616Z,5.33
2018-07-27T03:31:25.935Z,5.13
2018-07-27T03:33:29.946Z,4.93
2018-07-27T03:35:33.907Z,5.83
2018-07-27T03:37:38.331Z,5.53
2018-07-27T03:39:42.308Z,6.20
2018-07-27T03:41:46.548Z,5.37
2018-07-27T03:43:51.404Z,5.67
2018-07-27T03:45:55.387Z,6.30
2018-07-27T03:47:59.407Z,5.87
2018-07-27T03:50:03.337Z,5.67
2018-07-27T03:52:07.340Z,5.57
2018-07-27T03:54:11.232Z,5.70
2018-07-27T03:56:16.088Z,5.93
2018-07-27T03:58:20.061Z,5.40
2018-07-27T04:00:23.996Z,5.73
2018-07-27T04:02:28.375Z,6.13
2018-07-27T04:04:32.617Z,6.20
2018-07-27T04:06:36.614Z,5.73
2018-07-27T04:08:40.957Z,5.50
2018-07-27T04:10:44.847Z,5.50
2018-07-27T04:12:48.909Z,6.07
2018-07-27T04:14:53.816Z,5.70
2018-07-27T04:16:57.781Z,6.13
2018-07-27T04:19:02.138Z,5.63
2018-07-27T04:21:06.431Z,6.20
2018-07-27T04:23:10.433Z,6.17
2018-07-27T04:25:14.544Z,5.77
2018-07-27T04:27:20.925Z,6.23
2018-07-27T04:29:25.885Z,5.60
2018-07-27T04:31:29.435Z,6.13
2018-07-27T04:33:34.777Z,6.10
2018-07-27T04:35:38.852Z,6.60
2018-07-27T04:37:42.722Z,6.33
2018-07-27T04:39:47.746Z,6.50
2018-07-27T04:41:51.626Z,6.23
2018-07-27T04:43:55.626Z,6.20
2018-07-27T04:46:00.280Z,6.00
2018-07-27T04:48:05.053Z,6.03
2018-07-27T04:50:10.411Z,6.30
2018-07-27T04:52:14.366Z,5.73
2018-07-27T04:54:18.727Z,5.63
2018-07-27T04:56:22.658Z,6.10
2018-07-27T04:58:28.479Z,6.00
2018-07-27T05:00:32.479Z,6.77
2018-07-27T05:02:36.454Z,6.30
2018-07-27T05:04:40.441Z,6.47
2018-07-27T05:06:47.027Z,6.43
2018-07-27T05:08:56.685Z,6.30
2018-07-27T05:11:00.631Z,6.37
2018-07-27T05:13:05.151Z,6.83
2018-07-27T05:15:10.974Z,6.33
2018-07-27T05:17:14.977Z,6.97
2018-07-27T05:19:19.247Z,6.50
2018-07-27T05:21:23.157Z,6.95
2018-07-27T05:23:28.369Z,6.55
2018-07-27T05:25:32.385Z,6.50
2018-07-27T05:27:36.453Z,6.22
2018-07-27T05:29:40.885Z,6.10
2018-07-27T05:31:45.370Z,6.12
2018-07-27T05:33:49.961Z,6.37
2018-07-27T05:35:55.122Z,6.35
2018-07-27T05:37:59.403Z,6.33
2018-07-27T05:40:03.479Z,6.55
2018-07-27T05:42:07.496Z,5.92
2018-07-27T05:44:11.762Z,6.37
2018-07-27T05:46:16.338Z,6.20
2018-07-27T05:48:20.361Z,6.22
2018-07-27T05:50:24.450Z,6.45
2018-07-27T05:52:28.471Z,6.08
2018-07-27T05:54:32.574Z,6.80
2018-07-27T05:56:37.968Z,6.58
2018-07-27T05:58:41.936Z,6.85
2018-07-27T06:00:47.171Z,6.28
2018-07-27T06:02:51.130Z,6.85
2018-07-27T06:04:56.444Z,6.72
2018-07-27T06:07:00.510Z,6.70
2018-07-27T06:09:09.116Z,6.28
2018-07-27T06:11:13.223Z,6.65
2018-07-27T06:13:17.299Z,6.55
2018-07-27T06:15:22.662Z,6.72
2018-07-27T06:17:28.673Z,7.30
2018-07-27T06:19:32.903Z,6.90
2018-07-27T06:21:37.289Z,5.90
2018-07-27T06:23:41.376Z,6.45
2018-07-27T06:25:45.815Z,6.15
2018-07-27T06:27:50.113Z,6.10
2018-07-27T06:29:54.132Z,6.25
2018-07-27T06:32:00.409Z,6.22
2018-07-27T06:34:05.739Z,6.28
2018-07-27T06:36:10.401Z,6.08
2018-07-27T06:38:14.423Z,6.17
2018-07-27T06:40:18.823Z,5.97
2018-07-27T06:42:22.310Z,5.90
2018-07-27T06:44:26.316Z,6.17
2018-07-27T06:46:30.608Z,6.42
2018-07-27T06:48:34.600Z,5.72
2018-07-27T06:50:38.647Z,6.17
2018-07-27T06:52:45.178Z,6.72
2018-07-27T06:54:49.177Z,6.17
2018-07-27T06:56:54.015Z,5.92
2018-07-27T06:59:02.821Z,5.83
2018-07-27T07:01:07.937Z,6.28
2018-07-27T07:03:13.222Z,6.08
2018-07-27T07:05:20.263Z,6.05
2018-07-27T07:07:24.634Z,5.95
2018-07-27T07:09:30.060Z,6.60
2018-07-27T07:11:34.150Z,6.80
2018-07-27T07:13:38.137Z,6.37
2018-07-27T07:15:42.120Z,6.62
2018-07-27T07:17:46.805Z,6.40
2018-07-27T07:19:50.787Z,6.28
2018-07-27T07:21:54.794Z,6.80
2018-07-27T07:23:59.016Z,6.30
2018-07-27T07:26:03.307Z,6.95
2018-07-27T07:28:08.662Z,6.37
2018-07-27T07:30:15.123Z,6.40
2018-07-27T07:32:20.010Z,6.62
2018-07-27T07:34:24.861Z,6.72
2018-07-27T07:36:29.105Z,6.35
2018-07-27T07:38:33.137Z,6.08
2018-07-27T07:40:37.178Z,6.25
2018-07-27T07:42:42.678Z,6.25
2018-07-27T07:44:46.877Z,5.92
2018-07-27T07:46:56.785Z,6.40
2018-07-27T07:49:06.313Z,6.35
2018-07-27T07:51:10.728Z,6.50
2018-07-27T07:53:16.130Z,6.17
2018-07-27T07:55:20.505Z,6.08
2018-07-27T07:57:24.516Z,6.30
2018-07-27T07:59:30.279Z,6.53
2018-07-27T08:01:35.752Z,6.15
2018-07-27T08:03:39.721Z,6.35
2018-07-27T08:05:45.609Z,6.70
2018-07-27T08:07:49.924Z,6.10
2018-07-27T08:09:56.736Z,7.37
2018-07-27T08:12:03.111Z,6.67
2018-07-27T08:14:07.998Z,5.78
2018-07-27T08:16:15.455Z,6.65
2018-07-27T08:18:19.559Z,7.35
2018-07-27T08:20:24.509Z,6.92
2018-07-27T08:22:31.480Z,6.75
2018-07-27T08:24:35.609Z,7.20
2018-07-27T08:26:46.784Z,6.35
2018-07-27T08:28:51.355Z,6.55
2018-07-27T08:30:57.185Z,6.87
2018-07-27T08:33:02.507Z,7.28
2018-07-27T08:35:06.751Z,6.72
2018-07-27T08:37:11.789Z,7.17
2018-07-27T08:39:18.459Z,6.90
2018-07-27T08:41:22.515Z,6.35
2018-07-27T08:43:26.570Z,7.12
2018-07-27T08:45:31.497Z,6.72
2018-07-27T08:47:35.710Z,6.42
2018-07-27T08:49:40.380Z,6.97
2018-07-27T08:51:44.340Z,7.35
2018-07-27T08:53:50.032Z,6.65
2018-07-27T08:55:54.825Z,6.90
2018-07-27T08:57:59.345Z,6.85
2018-07-27T09:00:05.757Z,6.95
2018-07-27T09:02:09.390Z,6.87
2018-07-27T09:04:15.840Z,6.40
2018-07-27T09:06:20.024Z,6.30
2018-07-27T09:08:24.082Z,6.55
2018-07-27T09:10:30.896Z,6.40
2018-07-27T09:12:35.266Z,6.47
2018-07-27T09:14:41.699Z,6.75
2018-07-27T09:16:51.352Z,6.22
2018-07-27T09:18:56.075Z,6.60
2018-07-27T09:21:00.302Z,6.87
2018-07-27T09:23:04.793Z,6.20
2018-07-27T09:25:09.887Z,7.08
2018-07-27T09:27:14.747Z,6.67
2018-07-27T09:29:19.428Z,7.10
2018-07-27T09:31:24.240Z,6.37
2018-07-27T09:33:29.364Z,6.35
2018-07-27T09:35:35.488Z,6.80
2018-07-27T09:37:40.687Z,6.80
2018-07-27T09:39:44.621Z,6.87
2018-07-27T09:41:49.547Z,6.80
2018-07-27T09:43:53.675Z,6.87
2018-07-27T09:45:59.179Z,7.05
2018-07-27T09:48:05.637Z,6.30
2018-07-27T09:50:11.465Z,6.28
2018-07-27T09:52:16.325Z,6.85
2018-07-27T09:54:23.691Z,6.45
2018-07-27T09:56:28.348Z,6.12
2018-07-27T09:58:33.522Z,6.58
2018-07-27T10:00:43.187Z,6.58
2018-07-27T10:02:56.963Z,6.70
2018-07-27T10:05:03.907Z,6.95
2018-07-27T10:07:13.247Z,6.40
2018-07-27T10:09:17.247Z,6.58
2018-07-27T10:11:21.557Z,6.92
2018-07-27T10:13:30.766Z,6.40
2018-07-27T10:15:36.150Z,6.78
2018-07-27T10:17:41.380Z,6.45
2018-07-27T10:19:46.514Z,6.08
2018-07-27T10:21:50.463Z,7.05
2018-07-27T10:23:54.601Z,6.67
2018-07-27T10:26:01.492Z,6.45
2018-07-27T10:28:06.364Z,5.37
2018-07-27T10:30:10.362Z,6.22
2018-07-27T10:32:22.019Z,6.15
2018-07-27T10:34:33.094Z,6.12
2018-07-27T10:36:38.522Z,6.00
2018-07-27T10:38:43.617Z,5.95
2018-07-27T10:40:48.610Z,6.17
2018-07-27T10:42:52.728Z,6.85
2018-07-27T10:44:57.148Z,5.95
2018-07-27T10:47:01.999Z,6.10
2018-07-27T10:49:08.406Z,6.17
2018-07-27T10:51:15.257Z,6.25
2018-07-27T10:53:20.037Z,6.10
2018-07-27T10:55:25.252Z,6.03
2018-07-27T10:57:34.956Z,6.12
2018-07-27T10:59:41.764Z,6.05
2018-07-27T11:01:46.860Z,5.75
2018-07-27T11:03:52.443Z,7.20
2018-07-27T11:05:57.736Z,6.83
2018-07-27T11:08:02.455Z,6.33
2018-07-27T11:10:07.654Z,6.72
2018-07-27T11:12:18.345Z,6.85
2018-07-27T11:14:23.116Z,6.30
2018-07-27T11:16:27.375Z,5.97
2018-07-27T11:18:31.418Z,5.47
2018-07-27T11:20:36.070Z,5.40
2018-07-27T11:22:46.686Z,5.35
2018-07-27T11:24:51.261Z,5.92
2018-07-27T11:26:56.795Z,5.65
2018-07-27T11:29:10.061Z,6.62
2018-07-27T11:31:17.414Z,6.33
2018-07-27T11:33:22.600Z,6.12
2018-07-27T11:35:27.023Z,6.62
2018-07-27T11:37:31.025Z,6.60
2018-07-27T11:39:35.311Z,6.50
2018-07-27T11:41:39.762Z,6.53
2018-07-27T11:43:45.684Z,6.33
2018-07-27T11:45:49.635Z,6.58
2018-07-27T11:47:53.629Z,6.08
2018-07-27T11:49:59.384Z,6.70
2018-07-27T11:52:06.457Z,6.65
2018-07-27T11:54:11.424Z,5.87
2018-07-27T11:56:23.575Z,6.30
2018-07-27T11:58:27.619Z,5.97
2018-07-27T12:00:32.091Z,6.60
2018-07-27T12:02:36.197Z,6.45
2018-07-27T12:04:40.415Z,6.12
2018-07-27T12:06:45.497Z,6.53
2018-07-27T12:08:50.191Z,5.50
2018-07-27T12:10:54.133Z,6.03
2018-07-27T12:12:58.737Z,5.83
2018-07-27T12:15:04.708Z,5.85
2018-07-27T12:17:08.668Z,6.12
2018-07-27T12:19:12.721Z,6.33
2018-07-27T12:21:16.402Z,6.28
2018-07-27T12:23:20.475Z,6.58
2018-07-27T12:25:24.760Z,6.78
2018-07-27T12:27:30.638Z,6.17
2018-07-27T12:29:35.757Z,5.80
2018-07-27T12:31:41.144Z,5.97
2018-07-27T12:33:45.194Z,5.90
2018-07-27T12:35:49.278Z,6.33
2018-07-27T12:37:53.248Z,6.00
2018-07-27T12:39:57.979Z,6.25
2018-07-27T12:42:03.061Z,6.28
2018-07-27T12:44:09.518Z,5.78
2018-07-27T12:46:14.864Z,6.03
2018-07-27T12:48:21.763Z,5.47
2018-07-27T12:50:26.436Z,5.83
2018-07-27T12:52:30.537Z,5.58
2018-07-27T12:54:34.486Z,5.45
2018-07-27T12:56:38.788Z,5.87
2018-07-27T12:58:43.816Z,5.08
2018-07-27T13:00:47.845Z,5.67
2018-07-27T13:02:55.428Z,6.20
2018-07-27T13:05:04.133Z,6.37
2018-07-27T13:07:10.407Z,6.30
2018-07-27T13:09:14.705Z,6.03
2018-07-27T13:11:18.760Z,6.10
2018-07-27T13:13:23.409Z,6.00
2018-07-27T13:15:27.942Z,5.80
2018-07-27T13:17:32.153Z,5.75
2018-07-27T13:19:36.227Z,5.70
2018-07-27T13:21:40.450Z,5.53
2018-07-27T13:23:55.040Z,5.70
2018-07-27T13:26:23.879Z,5.72
2018-07-27T13:28:12.920Z,6.10
2018-07-27T13:30:18.698Z,6.05
2018-07-27T13:32:23.277Z,6.10
2018-07-27T13:35:29.958Z,5.72
2018-07-27T13:39:46.097Z,6.37
2018-07-27T13:41:50.846Z,5.95
2018-07-27T13:43:55.577Z,6.03
2018-07-27T13:46:00.571Z,5.53
2018-07-27T13:48:04.713Z,5.87
2018-07-27T13:50:08.816Z,5.78
2018-07-27T13:52:13.115Z,5.35
2018-07-27T13:54:17.286Z,5.37
2018-07-27T13:56:22.042Z,5.80
2018-07-27T13:58:26.602Z,5.50
2018-07-27T14:00:32.347Z,5.30
2018-07-27T14:02:37.982Z,5.47
2018-07-27T14:04:43.864Z,5.37
2018-07-27T14:06:49.754Z,5.80
2018-07-27T14:08:54.625Z,5.55
2018-07-27T14:11:00.485Z,5.10
2018-07-27T14:13:05.280Z,5.10
2018-07-27T14:15:09.897Z,5.17
2018-07-27T14:17:14.789Z,4.70
2018-07-27T14:19:19.943Z,5.20
2018-07-27T14:21:23.913Z,4.97
2018-07-27T14:23:29.723Z,5.03
2018-07-27T14:25:33.781Z,4.72
2018-07-27T14:27:38.008Z,4.72
2018-07-27T14:29:42.420Z,4.67
2018-07-27T14:31:47.785Z,5.00
2018-07-27T14:33:52.458Z,4.45
2018-07-27T14:35:56.982Z,4.45
2018-07-27T14:38:01.001Z,4.30
2018-07-27T14:40:05.772Z,4.65
2018-07-27T14:42:10.615Z,4.30
2018-07-27T14:44:15.430Z,4.37
2018-07-27T14:46:20.397Z,4.28
2018-07-27T14:48:25.092Z,4.95
2018-07-27T14:50:30.098Z,4.42
2018-07-27T14:52:36.010Z,4.72
2018-07-27T14:54:40.221Z,4.83
2018-07-27T14:56:44.363Z,4.85
2018-07-27T14:58:50.801Z,4.70
2018-07-27T15:01:07.192Z,4.95
2018-07-27T15:03:13.562Z,5.25
2018-07-27T15:05:18.746Z,4.70
2018-07-27T15:07:38.849Z,4.30
2018-07-27T15:09:44.129Z,5.03
2018-07-27T15:11:54.163Z,5.08
2018-07-27T15:13:58.603Z,5.55
2018-07-27T15:16:03.403Z,5.20
2018-07-27T15:18:08.717Z,5.15
2018-07-27T15:20:15.814Z,5.35
2018-07-27T15:22:23.006Z,5.37
2018-07-27T15:24:28.085Z,4.67
2018-07-27T15:26:32.364Z,4.67
2018-07-27T15:28:36.481Z,5.03
2018-07-27T15:30:42.990Z,4.95
2018-07-27T15:32:58.782Z,5.00
2018-07-27T15:35:04.697Z,4.83
2018-07-27T15:37:09.149Z,4.80
2018-07-27T15:39:14.621Z,5.10
2018-07-27T15:41:19.634Z,4.92
2018-07-27T15:43:24.572Z,5.20
2018-07-27T15:45:30.446Z,4.95
2018-07-27T15:47:34.726Z,4.92
2018-07-27T15:49:39.948Z,5.30
2018-07-27T15:51:51.195Z,5.00
2018-07-27T15:53:56.649Z,4.87
2018-07-27T15:56:01.089Z,4.67
2018-07-27T15:58:08.878Z,5.20
2018-07-27T16:00:19.712Z,4.97
2018-07-27T16:02:24.406Z,4.95
2018-07-27T16:04:31.862Z,5.00
2018-07-27T16:06:36.672Z,4.45
2018-07-27T16:08:44.374Z,5.10
2018-07-27T16:10:51.581Z,5.20
2018-07-27T16:12:56.701Z,5.53
2018-07-27T16:15:05.460Z,5.00
2018-07-27T16:17:12.717Z,4.92
2018-07-27T16:19:16.798Z,4.80
2018-07-27T16:21:23.776Z,4.55
2018-07-27T16:23:32.852Z,4.65
2018-07-27T16:25:38.220Z,4.72
2018-07-27T16:27:42.325Z,4.50
2018-07-27T16:29:57.877Z,4.83
2018-07-27T16:32:02.294Z,4.37
2018-07-27T16:34:07.697Z,4.53
2018-07-27T16:36:13.678Z,4.80
2018-07-27T16:38:21.175Z,4.78
2018-07-27T16:40:25.347Z,4.62
2018-07-27T16:42:31.054Z,4.72
2018-07-27T16:44:35.509Z,4.78
2018-07-27T16:46:40.448Z,4.90
2018-07-27T16:48:45.151Z,4.83
2018-07-27T16:50:50.301Z,4.97
2018-07-27T16:52:54.576Z,4.60
2018-07-27T16:55:00.117Z,4.87
2018-07-27T16:57:05.281Z,4.87
2018-07-27T16:59:12.313Z,4.60
2018-07-27T17:01:17.332Z,4.50
2018-07-27T17:03:21.615Z,4.85
2018-07-27T17:05:25.928Z,4.83
2018-07-27T17:07:31.290Z,4.62
2018-07-27T17:09:36.160Z,4.85
2018-07-27T17:11:40.702Z,4.35
2018-07-27T17:13:51.634Z,4.70
2018-07-27T17:15:58.332Z,4.60
2018-07-27T17:18:05.286Z,4.50
2018-07-27T17:20:09.931Z,4.65
2018-07-27T17:22:16.718Z,5.03
2018-07-27T17:24:27.326Z,4.47
2018-07-27T17:26:33.361Z,4.60
2018-07-27T17:28:39.927Z,4.90
2018-07-27T17:30:48.006Z,4.53
2018-07-27T17:32:52.463Z,5.12
2018-07-27T17:34:57.669Z,4.87
2018-07-27T17:37:01.700Z,4.75
2018-07-27T17:39:09.843Z,4.90
2018-07-27T17:41:14.712Z,4.72
2018-07-27T17:43:21.451Z,5.10
2018-07-27T17:45:28.202Z,4.97
2018-07-27T17:47:34.281Z,5.17
2018-07-27T17:49:46.709Z,5.22
2018-07-27T17:51:51.374Z,4.70
2018-07-27T17:53:56.030Z,4.87
2018-07-27T17:56:02.262Z,4.80
2018-07-27T17:58:06.611Z,4.50
2018-07-27T18:00:14.665Z,4.80
2018-07-27T18:02:20.446Z,4.70
2018-07-27T18:04:27.333Z,4.67
2018-07-27T18:06:31.389Z,5.03
2018-07-27T18:08:37.079Z,4.90
2018-07-27T18:10:43.732Z,5.45
2018-07-27T18:12:49.095Z,4.67
2018-07-27T18:14:53.253Z,4.62
2018-07-27T18:16:57.674Z,4.75
2018-07-27T18:19:02.059Z,5.05
2018-07-27T18:21:07.728Z,4.75
2018-07-27T18:23:12.806Z,4.53
2018-07-27T18:25:17.836Z,5.10
2018-07-27T18:27:22.693Z,5.15
2018-07-27T18:29:29.170Z,5.25
2018-07-27T18:31:34.884Z,5.25
2018-07-27T18:33:39.456Z,5.22
2018-07-27T18:35:49.547Z,4.90
2018-07-27T18:37:56.317Z,4.87
2018-07-27T18:40:01.709Z,5.10
2018-07-27T18:42:06.800Z,5.30
2018-07-27T18:44:12.655Z,5.60
2018-07-27T18:46:20.934Z,5.15
2018-07-27T18:48:28.971Z,5.30
2018-07-27T18:50:33.007Z,5.53
2018-07-27T18:52:45.623Z,6.15
2018-07-27T18:54:51.055Z,5.50
2018-07-27T18:56:55.667Z,5.92
2018-07-27T18:59:06.790Z,6.28
2018-07-27T19:01:11.026Z,6.30
2018-07-27T19:03:15.238Z,5.78
2018-07-27T19:05:24.519Z,5.60
2018-07-27T19:07:31.576Z,6.10
2018-07-27T19:09:36.622Z,5.30
2018-07-27T19:11:42.082Z,5.62
2018-07-27T19:13:46.432Z,6.50
2018-07-27T19:15:53.619Z,6.00
2018-07-27T19:18:01.401Z,6.12
2018-07-27T19:20:05.772Z,5.22
2018-07-27T19:22:10.415Z,6.17
2018-07-27T19:24:25.489Z,6.50
2018-07-27T19:26:34.082Z,5.90
2018-07-27T19:28:40.706Z,6.37
2018-07-27T19:30:47.591Z,6.30
2018-07-27T19:32:51.736Z,6.33
2018-07-27T19:34:55.492Z,6.50
2018-07-27T19:37:01.174Z,6.10
2018-07-27T19:39:08.964Z,6.15
2018-07-27T19:41:14.630Z,6.45
2018-07-27T19:43:19.314Z,6.40
2018-07-27T19:45:23.364Z,6.62
2018-07-27T19:47:27.993Z,6.42
2018-07-27T19:49:33.889Z,5.55
2018-07-27T19:51:38.500Z,6.25
2018-07-27T19:53:42.780Z,6.60
2018-07-27T19:55:47.293Z,5.83
2018-07-27T19:57:51.352Z,6.50
2018-07-27T19:59:57.011Z,6.92
2018-07-27T20:02:03.280Z,6.75
2018-07-27T20:04:08.166Z,6.78
2018-07-27T20:06:14.453Z,6.62
2018-07-27T20:08:18.796Z,7.47
2018-07-27T20:10:23.960Z,7.00
2018-07-27T20:12:28.931Z,6.20
2018-07-27T20:14:38.278Z,7.58
2018-07-27T20:16:43.868Z,6.40
2018-07-27T20:18:48.335Z,6.42
2018-07-27T20:20:53.637Z,6.37
2018-07-27T20:22:58.347Z,6.40
2018-07-27T20:25:03.111Z,6.20
2018-07-27T20:27:09.571Z,6.80
2018-07-27T20:29:58.247Z,6.72
2018-07-27T20:32:07.124Z,6.30
2018-07-27T20:34:11.321Z,6.50
2018-07-27T20:36:16.672Z,6.80
2018-07-27T20:38:32.584Z,6.67
2018-07-27T20:40:37.763Z,6.25
2018-07-27T20:42:49.016Z,6.47
2018-07-27T20:47:34.433Z,6.42
2018-07-27T20:49:40.288Z,5.92
2018-07-27T20:51:45.143Z,6.08
2018-07-27T20:53:51.746Z,6.25
2018-07-27T20:56:11.179Z,6.33
2018-07-27T20:58:16.606Z,6.00
2018-07-27T21:00:23.206Z,5.70
2018-07-27T21:02:56.108Z,5.85
2018-07-27T21:05:02.316Z,6.00
2018-07-27T21:07:08.668Z,5.75
2018-07-27T21:09:15.255Z,6.78
2018-07-27T21:11:22.217Z,6.47
2018-07-27T21:13:27.422Z,6.67
2018-07-27T21:15:31.571Z,6.00
2018-07-27T21:17:36.832Z,5.97
2018-07-27T21:19:40.801Z,6.33
2018-07-27T21:21:46.707Z,6.35
2018-07-27T21:23:51.839Z,6.53
2018-07-27T21:25:57.104Z,6.62
2018-07-27T21:28:02.883Z,6.95
2018-07-27T21:30:12.466Z,6.22
2018-07-27T21:32:20.479Z,7.00
2018-07-27T21:34:25.824Z,6.87
2018-07-27T21:36:32.415Z,6.45
2018-07-27T21:38:40.420Z,6.62
2018-07-27T21:40:46.440Z,6.60
2018-07-27T21:42:54.137Z,6.37
2018-07-27T21:44:59.610Z,6.87
2018-07-27T21:47:05.046Z,6.17
2018-07-27T21:49:12.621Z,7.05
2018-07-27T21:51:18.690Z,6.65
2018-07-27T21:53:27.409Z,7.37
2018-07-27T21:55:35.529Z,6.70
2018-07-27T21:57:42.776Z,6.33
2018-07-27T21:59:48.792Z,6.90
2018-07-27T22:01:56.094Z,6.83
2018-07-27T22:04:03.682Z,7.15
2018-07-27T22:06:09.620Z,7.20
2018-07-27T22:08:16.808Z,7.10
2018-07-27T22:10:24.227Z,7.40
2018-07-27T22:12:29.993Z,6.80
2018-07-27T22:14:36.826Z,6.90
2018-07-27T22:16:44.478Z,7.27
2018-07-27T22:18:48.565Z,6.63
2018-07-27T22:20:56.816Z,6.70
2018-07-27T22:23:03.233Z,6.78
2018-07-27T22:25:13.200Z,6.47
2018-07-27T22:27:20.583Z,6.63
2018-07-27T22:29:24.647Z,6.70
2018-07-27T22:31:33.764Z,6.60
2018-07-27T22:33:38.844Z,7.08
2018-07-27T22:35:55.114Z,6.93
2018-07-27T22:38:02.307Z,7.00
2018-07-27T22:40:13.308Z,6.60
2018-07-27T22:42:20.744Z,7.37
2018-07-27T22:44:28.440Z,7.10
2018-07-27T22:46:33.890Z,7.00
2018-07-27T22:48:38.777Z,7.57
2018-07-27T22:50:49.667Z,6.90
2018-07-27T22:52:57.341Z,7.10
2018-07-27T22:55:03.796Z,7.07
2018-07-27T22:57:12.156Z,6.83
2018-07-27T22:59:18.778Z,6.57
2018-07-27T23:01:26.434Z,7.00
2018-07-27T23:03:35.733Z,7.27
2018-07-27T23:05:45.959Z,7.40
2018-07-27T23:07:55.453Z,6.77
2018-07-27T23:10:03.772Z,6.73
2018-07-27T23:12:09.829Z,7.10
2018-07-27T23:14:28.324Z,7.07
2018-07-27T23:16:47.135Z,7.40
2018-07-27T23:18:51.464Z,6.80
2018-07-27T23:20:57.221Z,7.23
2018-07-27T23:23:02.681Z,6.83
2018-07-27T23:25:23.294Z,7.10
2018-07-27T23:29:50.715Z,6.73
2018-07-27T23:31:57.342Z,6.77
2018-07-27T23:34:01.460Z,7.43
2018-07-27T23:36:11.608Z,6.43
2018-07-27T23:38:26.422Z,6.37
2018-07-27T23:40:30.494Z,6.97
2018-07-27T23:42:39.092Z,6.80
2018-07-27T23:44:45.768Z,7.23
2018-07-27T23:49:03.005Z,7.57
2018-07-27T23:53:32.789Z,6.93
2018-07-27T23:55:40.110Z,6.40
2018-07-27T23:57:47.976Z,7.00
2018-07-27T23:59:59.134Z,6.70
